Аэропорт: Оренбург-Центральный. Оренбург

ICAO: UWOO

METAR:
2021-07-28 14:00:00
UWOO 281400Z 34006MPS CAVOK 26/05 Q1011 R26/CLRD65 NOSIG RMK QFE748/0997
METAR:
2021-07-28 10:56:00
TAF UWOO 281056Z 2812/2912 34006G15MPS 9999 SCT020CB BKN030 TX28/2812Z TN12/2901Z TEMPO 2812/2817 36003G12MPS 6000 -SHRA BKN016CB BECMG 2817/2818 03003G08MPS TEMPO 2903/2912 27003G12MPS